Time;durP1;ratioP1;P1;durP2;ratioP2;P2;SDS_P1;SDS_P2;PMS_P1;PMS_P2;Temp;Humidity;BMP_temperature;BMP_pressure;BME280_temperature;BME280_humidity;BME280_pressure;Samples;Min_cycle;Max_cycle;Signal;HPM_P1;HPM_P2
2024/01/03 00:01:42;;;;;;;17.85;9.05;;;;;;;;;;10343874;23;20129;-93
2024/01/03 00:05:47;;;;;;;15.40;8.20;;;;;;;;;;10341091;23;20433;-94
2024/01/03 00:09:55;;;;;;;15.25;8.15;;;;;;;;;;10340268;23;20436;-94
2024/01/03 00:14:32;;;;;;;16.55;8.38;;;;;;;;;;10357700;23;20017;-93
2024/01/03 00:18:37;;;;;;;14.60;7.38;;;;;;;;;;10106152;23;20054;-93
2024/01/03 00:22:41;;;;;;;20.63;8.88;;;;;;;;;;10089674;23;20710;-94
2024/01/03 00:26:44;;;;;;;15.07;7.78;;;;;;;;;;10089295;23;20101;-94
2024/01/03 00:30:47;;;;;;;16.05;7.90;;;;;;;;;;10089119;23;20018;-93
2024/01/03 00:34:52;;;;;;;9.90;4.80;;;;;;;;;;10089569;23;20030;-94
2024/01/03 00:38:56;;;;;;;15.57;6.20;;;;;;;;;;10089126;23;20081;-92
2024/01/03 00:42:59;;;;;;;14.05;6.93;;;;;;;;;;10089347;23;20105;-92
2024/01/03 00:47:02;;;;;;;13.02;6.15;;;;;;;;;;10114046;23;20024;-93
2024/01/03 00:51:06;;;;;;;10.85;5.97;;;;;;;;;;10339836;23;20016;-92
2024/01/03 00:55:13;;;;;;;16.25;7.72;;;;;;;;;;10339906;23;20082;-92
2024/01/03 00:59:17;;;;;;;14.15;7.53;;;;;;;;;;10339436;23;20055;-94
2024/01/03 01:03:20;;;;;;;14.32;7.68;;;;;;;;;;10339692;23;20027;-92
2024/01/03 01:07:23;;;;;;;13.43;6.25;;;;;;;;;;10339796;23;20432;-92
2024/01/03 01:11:28;;;;;;;12.85;6.32;;;;;;;;;;10339600;23;20020;-94
2024/01/03 01:15:31;;;;;;;12.05;5.82;;;;;;;;;;10339513;23;20024;-93
2024/01/03 01:19:34;;;;;;;13.25;6.18;;;;;;;;;;10339659;23;20310;-93
2024/01/03 01:23:42;;;;;;;11.15;5.68;;;;;;;;;;10340040;23;20016;-93
2024/01/03 01:27:46;;;;;;;12.88;6.72;;;;;;;;;;10356071;23;20016;-93
2024/01/03 01:31:48;;;;;;;11.77;6.57;;;;;;;;;;10312426;23;20020;-92
2024/01/03 01:35:51;;;;;;;12.63;6.80;;;;;;;;;;10339803;23;20016;-93
2024/01/03 01:39:54;;;;;;;14.15;6.45;;;;;;;;;;10339285;23;20119;-93
2024/01/03 01:43:59;;;;;;;17.00;7.35;;;;;;;;;;10339345;23;20433;-94
2024/01/03 01:48:02;;;;;;;12.90;6.72;;;;;;;;;;10338974;23;20023;-93
2024/01/03 01:52:05;;;;;;;11.70;6.25;;;;;;;;;;10312142;23;20024;-94
2024/01/03 01:56:09;;;;;;;13.43;6.53;;;;;;;;;;10338803;23;20432;-94
2024/01/03 02:00:16;;;;;;;12.25;6.75;;;;;;;;;;10338483;23;20020;-92
2024/01/03 02:04:19;;;;;;;14.05;6.40;;;;;;;;;;10355694;23;20020;-94
2024/01/03 02:08:22;;;;;;;14.48;6.82;;;;;;;;;;10338736;23;20023;-92
2024/01/03 02:12:28;;;;;;;10.52;5.82;;;;;;;;;;10338207;23;20162;-94
2024/01/03 02:16:32;;;;;;;14.27;7.72;;;;;;;;;;10338825;23;20437;-92
2024/01/03 02:20:37;;;;;;;13.98;6.93;;;;;;;;;;10338489;23;20043;-93
2024/01/03 02:24:42;;;;;;;10.10;5.63;;;;;;;;;;10355265;23;20020;-93
2024/01/03 02:28:46;;;;;;;10.10;6.03;;;;;;;;;;10338589;23;20030;-94
2024/01/03 02:32:48;;;;;;;11.38;5.93;;;;;;;;;;10338524;23;20020;-93
2024/01/03 02:36:53;;;;;;;11.20;5.93;;;;;;;;;;10339356;23;20023;-94
2024/01/03 02:40:57;;;;;;;13.13;6.18;;;;;;;;;;10338465;23;20016;-93
2024/01/03 02:45:00;;;;;;;9.57;4.65;;;;;;;;;;10338999;23;20027;-93
2024/01/03 02:49:03;;;;;;;13.32;6.35;;;;;;;;;;10338334;23;20345;-91
2024/01/03 02:53:06;;;;;;;10.73;6.03;;;;;;;;;;10338426;23;20024;-91
2024/01/03 02:57:10;;;;;;;11.63;6.00;;;;;;;;;;10337293;23;20090;-91
2024/01/03 03:01:13;;;;;;;12.07;6.57;;;;;;;;;;10345705;23;20020;-91
2024/01/03 03:05:16;;;;;;;12.65;6.22;;;;;;;;;;10337261;23;20066;-91
2024/01/03 03:09:20;;;;;;;15.20;7.03;;;;;;;;;;10337338;23;20335;-91
2024/01/03 03:13:24;;;;;;;13.85;6.85;;;;;;;;;;10337543;23;20156;-92
2024/01/03 03:17:27;;;;;;;11.98;6.53;;;;;;;;;;10337341;23;20012;-92
2024/01/03 03:21:30;;;;;;;12.65;6.78;;;;;;;;;;10338010;23;20047;-92
2024/01/03 03:25:33;;;;;;;15.27;6.72;;;;;;;;;;10340112;23;20064;-92
2024/01/03 03:29:37;;;;;;;10.85;5.72;;;;;;;;;;10340721;23;20026;-92
2024/01/03 03:33:40;;;;;;;11.98;5.20;;;;;;;;;;10340602;23;20051;-92
2024/01/03 03:37:43;;;;;;;12.60;6.05;;;;;;;;;;10340819;23;20448;-92
2024/01/03 03:41:46;;;;;;;11.70;5.63;;;;;;;;;;10340529;23;20453;-91
2024/01/03 03:45:50;;;;;;;12.45;7.18;;;;;;;;;;10340430;23;20106;-91
2024/01/03 03:49:53;;;;;;;12.15;6.05;;;;;;;;;;10340461;23;20466;-91
2024/01/03 03:53:56;;;;;;;9.90;5.72;;;;;;;;;;10340443;23;20043;-92
2024/01/03 03:57:59;;;;;;;10.15;5.90;;;;;;;;;;10340152;23;20043;-92
2024/01/03 04:02:03;;;;;;;10.30;5.70;;;;;;;;;;10340398;23;20066;-92
2024/01/03 04:06:06;;;;;;;9.68;5.35;;;;;;;;;;10340301;23;20038;-92
2024/01/03 04:10:10;;;;;;;12.02;6.10;;;;;;;;;;10340162;23;20095;-92
2024/01/03 04:14:13;;;;;;;9.90;5.78;;;;;;;;;;10340130;23;20036;-92
2024/01/03 04:18:17;;;;;;;14.43;5.80;;;;;;;;;;10340003;23;20030;-90
2024/01/03 04:22:19;;;;;;;9.40;5.53;;;;;;;;;;10313069;23;20047;-93
2024/01/03 04:26:23;;;;;;;8.10;4.88;;;;;;;;;;10339969;23;20020;-92
2024/01/03 04:30:26;;;;;;;12.07;5.45;;;;;;;;;;10312687;23;20020;-93
2024/01/03 04:34:30;;;;;;;11.55;5.47;;;;;;;;;;10340031;23;20073;-92
2024/01/03 04:38:35;;;;;;;7.00;4.28;;;;;;;;;;10340059;23;20027;-93
2024/01/03 04:42:43;;;;;;;10.85;5.18;;;;;;;;;;10357133;23;20070;-93
2024/01/03 04:46:46;;;;;;;9.40;4.70;;;;;;;;;;10357094;23;20016;-93
2024/01/03 04:50:50;;;;;;;9.20;4.82;;;;;;;;;;10339532;23;20070;-93
2024/01/03 04:54:53;;;;;;;9.57;5.00;;;;;;;;;;10340230;23;20099;-93
2024/01/03 04:58:56;;;;;;;8.35;4.88;;;;;;;;;;10340834;23;20500;-93
2024/01/03 05:03:01;;;;;;;8.63;4.68;;;;;;;;;;10340611;23;20087;-93
2024/01/03 05:07:05;;;;;;;6.97;4.47;;;;;;;;;;10313644;23;20471;-93
2024/01/03 05:11:09;;;;;;;8.52;4.68;;;;;;;;;;10340055;23;20016;-92
2024/01/03 05:15:13;;;;;;;8.68;4.82;;;;;;;;;;10341184;23;20337;-92
2024/01/03 05:19:16;;;;;;;8.82;4.82;;;;;;;;;;10340080;23;20070;-93
2024/01/03 05:23:20;;;;;;;9.18;5.75;;;;;;;;;;10344583;23;20016;-92
2024/01/03 05:27:23;;;;;;;11.02;5.68;;;;;;;;;;10356611;23;20028;-91
2024/01/03 05:31:26;;;;;;;7.35;4.53;;;;;;;;;;10339433;23;20027;-93
2024/01/03 05:35:30;;;;;;;9.25;4.95;;;;;;;;;;10312014;23;20402;-93
2024/01/03 05:39:34;;;;;;;7.72;4.63;;;;;;;;;;10339117;23;20519;-92
2024/01/03 05:43:37;;;;;;;9.48;5.15;;;;;;;;;;10338554;23;20077;-93
2024/01/03 05:47:41;;;;;;;10.50;5.05;;;;;;;;;;10311578;23;20043;-93
2024/01/03 05:51:44;;;;;;;8.70;4.32;;;;;;;;;;10338893;23;20512;-94
2024/01/03 05:55:48;;;;;;;7.95;5.07;;;;;;;;;;10338635;23;20016;-91
2024/01/03 05:59:51;;;;;;;9.73;5.47;;;;;;;;;;10311278;23;20024;-92
2024/01/03 06:03:54;;;;;;;8.32;4.70;;;;;;;;;;10355295;23;20023;-92
2024/01/03 06:07:58;;;;;;;9.73;4.75;;;;;;;;;;10338295;23;20044;-92
2024/01/03 06:12:02;;;;;;;10.05;5.10;;;;;;;;;;10338525;23;20441;-92
2024/01/03 06:16:06;;;;;;;7.22;4.82;;;;;;;;;;10338499;23;20534;-92
2024/01/03 06:20:10;;;;;;;9.07;4.63;;;;;;;;;;10338617;23;20020;-93
2024/01/03 06:24:13;;;;;;;8.55;5.28;;;;;;;;;;10338332;23;20150;-92
2024/01/03 06:28:17;;;;;;;9.73;5.18;;;;;;;;;;10338312;23;20058;-92
2024/01/03 06:32:20;;;;;;;9.80;5.45;;;;;;;;;;10338142;23;20046;-92
2024/01/03 06:36:23;;;;;;;8.82;4.80;;;;;;;;;;10338653;23;20099;-93
2024/01/03 06:40:26;;;;;;;14.48;5.70;;;;;;;;;;10338462;23;20016;-93
2024/01/03 06:44:30;;;;;;;10.05;5.72;;;;;;;;;;10337997;23;20023;-91
2024/01/03 06:48:33;;;;;;;10.30;6.70;;;;;;;;;;10337823;23;20027;-92
2024/01/03 06:52:36;;;;;;;14.00;7.65;;;;;;;;;;10337530;23;20340;-93
2024/01/03 06:56:39;;;;;;;9.68;5.50;;;;;;;;;;10337578;23;20047;-92
2024/01/03 07:00:44;;;;;;;9.30;5.47;;;;;;;;;;10336808;23;20016;-92
2024/01/03 07:04:47;;;;;;;9.57;4.60;;;;;;;;;;10337450;23;20088;-92
2024/01/03 07:08:51;;;;;;;9.90;5.28;;;;;;;;;;10337609;23;20447;-92
2024/01/03 07:12:54;;;;;;;7.60;4.55;;;;;;;;;;10337609;23;20036;-91
2024/01/03 07:17:01;;;;;;;6.95;4.18;;;;;;;;;;10337979;23;20433;-93
2024/01/03 07:21:05;;;;;;;6.95;4.32;;;;;;;;;;10355413;23;20079;-92
2024/01/03 07:25:09;;;;;;;7.30;4.38;;;;;;;;;;10339018;23;20336;-93
2024/01/03 07:29:15;;;;;;;8.02;4.80;;;;;;;;;;10355309;23;20023;-92
2024/01/03 07:33:19;;;;;;;9.10;5.20;;;;;;;;;;10339255;23;20023;-92
2024/01/03 07:37:25;;;;;;;9.60;5.07;;;;;;;;;;10340081;23;20016;-92
2024/01/03 07:41:28;;;;;;;11.15;6.40;;;;;;;;;;10313984;23;20469;-92
2024/01/03 07:45:31;;;;;;;11.35;6.85;;;;;;;;;;10340928;23;20015;-92
2024/01/03 07:49:36;;;;;;;10.15;5.78;;;;;;;;;;10339036;23;20498;-93
2024/01/03 07:53:42;;;;;;;13.60;7.00;;;;;;;;;;10343980;23;20031;-93
2024/01/03 07:57:45;;;;;;;14.95;7.43;;;;;;;;;;10342040;23;20440;-96
2024/01/03 08:01:48;;;;;;;13.63;7.20;;;;;;;;;;10339777;23;20020;-93
2024/01/03 08:05:54;;;;;;;9.15;5.10;;;;;;;;;;10341983;23;20036;-94
2024/01/03 08:09:57;;;;;;;8.35;3.75;;;;;;;;;;10341396;23;20024;-93
2024/01/03 08:14:01;;;;;;;12.77;5.47;;;;;;;;;;10343691;23;20091;-92
2024/01/03 08:18:04;;;;;;;7.68;3.38;;;;;;;;;;10344796;23;20085;-93
2024/01/03 08:22:08;;;;;;;9.65;4.50;;;;;;;;;;10345916;23;20020;-93
2024/01/03 08:26:15;;;;;;;5.55;3.38;;;;;;;;;;10341889;23;20070;-93
2024/01/03 08:30:18;;;;;;;6.00;3.28;;;;;;;;;;10357635;23;20023;-93
2024/01/03 08:34:21;;;;;;;5.40;3.05;;;;;;;;;;10340321;23;20016;-93
2024/01/03 08:38:26;;;;;;;6.13;3.00;;;;;;;;;;10348500;23;20028;-91
2024/01/03 08:42:29;;;;;;;5.50;3.17;;;;;;;;;;10342141;23;20023;-92
2024/01/03 08:46:34;;;;;;;7.78;3.60;;;;;;;;;;10339707;23;20042;-91
2024/01/03 08:50:37;;;;;;;6.32;3.15;;;;;;;;;;10356076;23;20314;-91
2024/01/03 08:54:42;;;;;;;6.25;2.97;;;;;;;;;;10339683;23;20022;-93
2024/01/03 08:58:46;;;;;;;6.18;2.97;;;;;;;;;;10340707;23;20020;-90
2024/01/03 09:02:49;;;;;;;8.77;3.90;;;;;;;;;;10315619;23;20766;-93
2024/01/03 09:06:52;;;;;;;9.57;4.28;;;;;;;;;;10314480;23;20098;-93
2024/01/03 09:10:59;;;;;;;9.13;3.80;;;;;;;;;;10342736;23;20448;-93
2024/01/03 09:15:02;;;;;;;10.63;4.38;;;;;;;;;;10358704;23;20016;-92
2024/01/03 09:19:05;;;;;;;7.22;3.58;;;;;;;;;;10340156;23;20011;-90
2024/01/03 09:23:10;;;;;;;10.75;4.43;;;;;;;;;;10340357;22;20020;-91
2024/01/03 09:27:15;;;;;;;7.30;3.45;;;;;;;;;;10360284;23;20417;-94
2024/01/03 09:31:18;;;;;;;8.05;3.50;;;;;;;;;;10340620;23;20357;-92
2024/01/03 09:35:21;;;;;;;9.38;3.58;;;;;;;;;;10338968;23;20027;-90
2024/01/03 09:39:24;;;;;;;7.25;3.60;;;;;;;;;;10341568;23;20050;-92
2024/01/03 09:43:28;;;;;;;9.80;3.60;;;;;;;;;;10340346;23;20027;-91
2024/01/03 09:47:31;;;;;;;7.55;3.78;;;;;;;;;;10338473;23;20074;-89
2024/01/03 09:51:35;;;;;;;10.35;4.57;;;;;;;;;;10338558;23;20020;-90
2024/01/03 09:55:40;;;;;;;7.80;3.75;;;;;;;;;;10312181;23;20020;-91
2024/01/03 09:59:44;;;;;;;9.07;5.00;;;;;;;;;;10338151;23;20023;-90
2024/01/03 10:03:47;;;;;;;8.88;4.43;;;;;;;;;;10354912;23;20020;-91
2024/01/03 10:07:50;;;;;;;10.75;4.70;;;;;;;;;;10338443;23;20036;-93
2024/01/03 10:11:53;;;;;;;8.63;4.63;;;;;;;;;;10338011;23;20030;-92
2024/01/03 10:16:04;;;;;;;9.18;4.60;;;;;;;;;;10338319;23;20016;-93
2024/01/03 10:20:25;;;;;;;10.90;4.85;;;;;;;;;;10354971;23;20065;-92
2024/01/03 10:24:31;;;;;;;8.10;4.13;;;;;;;;;;10358851;22;20016;-93
2024/01/03 10:28:34;;;;;;;7.93;3.80;;;;;;;;;;10354714;23;20504;-93
2024/01/03 10:32:40;;;;;;;9.48;4.80;;;;;;;;;;10338072;23;20016;-91
2024/01/03 10:36:44;;;;;;;8.75;4.10;;;;;;;;;;10348888;23;20023;-94
2024/01/03 10:40:49;;;;;;;4.47;2.50;;;;;;;;;;10339050;23;20354;-93
2024/01/03 10:44:54;;;;;;;6.00;3.03;;;;;;;;;;10339089;23;20095;-94
2024/01/03 10:48:59;;;;;;;6.45;2.45;;;;;;;;;;10341372;23;20040;-93
2024/01/03 10:53:09;;;;;;;6.93;2.80;;;;;;;;;;10338184;23;20018;-94
2024/01/03 10:57:15;;;;;;;5.78;2.67;;;;;;;;;;10364722;23;20020;-88
2024/01/03 11:01:23;;;;;;;8.02;4.05;;;;;;;;;;10380091;22;20042;-93
2024/01/03 11:05:53;;;;;;;14.48;5.93;;;;;;;;;;10359460;23;20095;-92
2024/01/03 11:09:56;;;;;;;6.80;2.95;;;;;;;;;;10339907;23;20031;-94
2024/01/03 11:13:59;;;;;;;9.77;5.35;;;;;;;;;;10342138;23;20080;-94
2024/01/03 11:18:05;;;;;;;19.17;8.20;;;;;;;;;;10339948;23;20020;-93
2024/01/03 11:22:09;;;;;;;9.35;5.20;;;;;;;;;;10340656;23;20449;-91
2024/01/03 11:26:12;;;;;;;7.43;3.53;;;;;;;;;;10337843;23;20485;-90
2024/01/03 11:30:42;;;;;;;8.32;4.80;;;;;;;;;;10337188;23;20475;-90
2024/01/03 11:34:48;;;;;;;6.20;3.22;;;;;;;;;;10342347;23;20070;-90
2024/01/03 11:38:52;;;;;;;7.13;3.42;;;;;;;;;;10383598;23;20008;-95
2024/01/03 11:42:59;;;;;;;5.25;3.15;;;;;;;;;;10342478;23;20095;-91
2024/01/03 11:47:03;;;;;;;7.75;4.22;;;;;;;;;;10314903;23;20026;-93
2024/01/03 11:51:22;;;;;;;7.55;4.05;;;;;;;;;;10314791;23;20070;-95
2024/01/03 11:55:27;;;;;;;4.75;3.13;;;;;;;;;;10362863;23;20031;-91
2024/01/03 11:59:33;;;;;;;5.78;3.08;;;;;;;;;;10340222;23;20126;-89
2024/01/03 12:03:36;;;;;;;6.97;2.90;;;;;;;;;;10356463;23;20027;-91
2024/01/03 12:07:39;;;;;;;5.47;2.88;;;;;;;;;;10339951;23;20016;-89
2024/01/03 12:11:43;;;;;;;4.22;3.10;;;;;;;;;;10340076;23;20322;-89
2024/01/03 12:15:47;;;;;;;6.25;2.20;;;;;;;;;;10339927;23;20095;-90
2024/01/03 12:19:49;;;;;;;7.10;3.20;;;;;;;;;;10339663;23;20012;-89
2024/01/03 12:23:59;;;;;;;8.43;3.83;;;;;;;;;;10341627;23;20020;-92
2024/01/03 12:28:05;;;;;;;7.88;4.32;;;;;;;;;;10357409;23;20020;-90
2024/01/03 12:32:12;;;;;;;4.57;2.65;;;;;;;;;;10339495;23;20016;-90
2024/01/03 12:36:15;;;;;;;5.50;3.08;;;;;;;;;;10339455;23;20027;-90
2024/01/03 12:40:18;;;;;;;5.78;2.50;;;;;;;;;;10339354;23;20091;-90
2024/01/03 12:44:23;;;;;;;6.70;3.53;;;;;;;;;;10339529;23;20042;-91
2024/01/03 12:48:26;;;;;;;9.95;4.25;;;;;;;;;;10339309;23;20028;-91
2024/01/03 12:52:30;;;;;;;6.13;2.78;;;;;;;;;;10340196;23;20020;-92
2024/01/03 12:56:32;;;;;;;6.22;3.05;;;;;;;;;;10312154;23;20457;-90
2024/01/03 13:00:37;;;;;;;5.15;2.45;;;;;;;;;;10338709;23;20020;-91
2024/01/03 13:04:40;;;;;;;4.93;2.70;;;;;;;;;;10339964;23;20020;-93
2024/01/03 13:08:43;;;;;;;6.10;2.88;;;;;;;;;;10342093;23;20027;-95
2024/01/03 13:12:46;;;;;;;7.03;2.75;;;;;;;;;;10340989;23;20051;-92
2024/01/03 13:16:51;;;;;;;4.78;2.35;;;;;;;;;;10339316;23;20023;-91
2024/01/03 13:20:54;;;;;;;8.82;3.60;;;;;;;;;;10361560;23;20020;-93
2024/01/03 13:24:57;;;;;;;15.13;7.15;;;;;;;;;;10342374;23;20020;-92
2024/01/03 13:29:00;;;;;;;11.85;6.13;;;;;;;;;;10342498;23;20016;-92
2024/01/03 13:33:10;;;;;;;11.77;5.15;;;;;;;;;;10340006;23;20012;-92
2024/01/03 13:37:13;;;;;;;25.20;11.70;;;;;;;;;;10357153;23;20090;-91
2024/01/03 13:41:22;;;;;;;12.35;7.35;;;;;;;;;;10345489;23;20040;-93
2024/01/03 13:45:26;;;;;;;9.73;5.70;;;;;;;;;;10363401;23;20456;-93
2024/01/03 13:49:33;;;;;;;7.72;4.53;;;;;;;;;;10357740;23;20016;-92
2024/01/03 13:53:36;;;;;;;8.80;4.90;;;;;;;;;;10342030;23;20453;-94
2024/01/03 13:57:39;;;;;;;9.85;5.65;;;;;;;;;;10342777;23;20027;-93
2024/01/03 14:01:47;;;;;;;8.77;4.32;;;;;;;;;;10341333;23;20089;-93
2024/01/03 14:05:55;;;;;;;7.18;3.85;;;;;;;;;;10360370;23;20020;-92
2024/01/03 14:10:03;;;;;;;11.25;4.60;;;;;;;;;;10356023;23;20040;-93
2024/01/03 14:14:06;;;;;;;12.07;5.50;;;;;;;;;;10360365;23;20359;-93
2024/01/03 14:18:09;;;;;;;7.57;3.70;;;;;;;;;;10339146;23;20020;-93
2024/01/03 14:22:14;;;;;;;8.38;3.78;;;;;;;;;;10339056;23;20066;-93
2024/01/03 14:26:17;;;;;;;7.88;4.75;;;;;;;;;;10339273;23;20417;-92
2024/01/03 14:30:20;;;;;;;7.25;3.78;;;;;;;;;;10339221;23;20023;-93
2024/01/03 14:34:23;;;;;;;6.72;3.58;;;;;;;;;;10339256;23;20016;-93
2024/01/03 14:38:31;;;;;;;7.05;3.65;;;;;;;;;;10339129;23;20155;-93
2024/01/03 14:42:37;;;;;;;8.85;4.30;;;;;;;;;;10339941;23;20124;-92
2024/01/03 14:46:40;;;;;;;11.98;4.40;;;;;;;;;;10357348;23;20040;-93
2024/01/03 14:50:43;;;;;;;18.15;9.27;;;;;;;;;;10338513;23;20340;-93
2024/01/03 14:54:48;;;;;;;8.68;3.83;;;;;;;;;;10338418;23;20523;-92
2024/01/03 14:58:52;;;;;;;11.25;4.80;;;;;;;;;;10337860;23;20016;-91
2024/01/03 15:02:57;;;;;;;9.85;4.82;;;;;;;;;;10337714;23;20384;-92
2024/01/03 15:07:05;;;;;;;10.02;5.22;;;;;;;;;;10356361;23;20073;-91
2024/01/03 15:11:09;;;;;;;11.40;5.30;;;;;;;;;;10340141;23;20027;-90
2024/01/03 15:15:12;;;;;;;10.90;4.90;;;;;;;;;;10338755;23;20016;-91
2024/01/03 15:19:15;;;;;;;80.72;26.55;;;;;;;;;;10341858;23;20091;-93
2024/01/03 15:23:19;;;;;;;61.00;22.27;;;;;;;;;;10314707;23;20027;-91
2024/01/03 15:27:23;;;;;;;76.07;30.65;;;;;;;;;;10340893;23;20445;-92
2024/01/03 15:31:26;;;;;;;110.72;43.42;;;;;;;;;;10313967;23;20178;-92
2024/01/03 15:35:30;;;;;;;79.13;38.67;;;;;;;;;;10340661;23;20039;-92
2024/01/03 15:39:34;;;;;;;81.40;29.13;;;;;;;;;;10341361;23;20384;-92
2024/01/03 15:43:40;;;;;;;98.32;31.92;;;;;;;;;;10341760;23;20016;-91
2024/01/03 15:47:43;;;;;;;60.53;24.20;;;;;;;;;;10316695;23;20052;-92
2024/01/03 15:51:57;;;;;;;36.63;17.65;;;;;;;;;;10344772;23;20020;-93
2024/01/03 15:56:00;;;;;;;26.13;12.40;;;;;;;;;;10344693;23;20039;-93
2024/01/03 16:00:06;;;;;;;72.80;28.35;;;;;;;;;;10348867;23;20523;-93
2024/01/03 16:04:10;;;;;;;22.02;11.20;;;;;;;;;;10318273;23;20095;-93
2024/01/03 16:08:13;;;;;;;31.23;14.75;;;;;;;;;;10319624;23;20016;-92
2024/01/03 16:12:21;;;;;;;34.58;17.38;;;;;;;;;;10317294;23;20230;-92
2024/01/03 16:16:25;;;;;;;14.25;7.50;;;;;;;;;;10318195;23;20046;-94
2024/01/03 16:20:31;;;;;;;16.20;9.73;;;;;;;;;;10317206;23;20012;-94
2024/01/03 16:24:34;;;;;;;82.90;36.45;;;;;;;;;;10358864;23;20031;-94
2024/01/03 16:28:48;;;;;;;42.95;19.92;;;;;;;;;;10344509;23;20396;-91
2024/01/03 16:32:54;;;;;;;31.88;16.63;;;;;;;;;;10362759;23;20452;-93
2024/01/03 16:36:58;;;;;;;35.13;16.02;;;;;;;;;;10319444;23;20330;-95
2024/01/03 16:41:02;;;;;;;22.52;10.18;;;;;;;;;;10340399;23;20016;-92
2024/01/03 16:45:09;;;;;;;25.42;13.13;;;;;;;;;;10341927;23;20031;-93
2024/01/03 16:49:18;;;;;;;29.40;12.27;;;;;;;;;;10357816;23;20020;-91
2024/01/03 16:53:21;;;;;;;45.58;19.58;;;;;;;;;;10316755;23;20465;-94
2024/01/03 16:57:26;;;;;;;59.25;24.13;;;;;;;;;;10313073;23;20444;-91
2024/01/03 17:01:29;;;;;;;34.75;16.50;;;;;;;;;;10313026;23;20039;-91
2024/01/03 17:05:34;;;;;;;37.22;19.80;;;;;;;;;;10341889;23;20016;-93
2024/01/03 17:09:37;;;;;;;72.82;24.25;;;;;;;;;;10340886;23;20579;-92
2024/01/03 17:13:40;;;;;;;59.30;21.88;;;;;;;;;;10339868;23;20098;-92
2024/01/03 17:17:43;;;;;;;29.50;13.73;;;;;;;;;;10339347;23;20020;-92
2024/01/03 17:21:49;;;;;;;18.20;8.00;;;;;;;;;;10340318;23;20024;-90
2024/01/03 17:25:52;;;;;;;14.13;6.75;;;;;;;;;;10312341;23;20027;-93
2024/01/03 17:29:55;;;;;;;11.30;5.80;;;;;;;;;;10340158;23;20436;-92
2024/01/03 17:34:01;;;;;;;16.42;7.20;;;;;;;;;;10339690;23;20016;-93
2024/01/03 17:38:05;;;;;;;14.18;6.15;;;;;;;;;;10314918;23;20016;-93
2024/01/03 17:42:08;;;;;;;12.52;6.18;;;;;;;;;;10338450;23;20020;-93
2024/01/03 17:46:13;;;;;;;11.63;5.75;;;;;;;;;;10338831;23;20024;-92
2024/01/03 17:50:18;;;;;;;12.95;5.07;;;;;;;;;;10339028;23;20400;-92
2024/01/03 17:54:22;;;;;;;13.45;5.93;;;;;;;;;;10339359;23;20095;-92
2024/01/03 17:58:25;;;;;;;11.05;5.35;;;;;;;;;;10338667;23;20460;-93
2024/01/03 18:02:30;;;;;;;14.55;6.88;;;;;;;;;;10338897;23;20099;-90
2024/01/03 18:06:33;;;;;;;11.18;4.32;;;;;;;;;;10314048;23;20020;-92
2024/01/03 18:10:57;;;;;;;12.05;5.15;;;;;;;;;;10342749;23;20020;-93
2024/01/03 18:15:03;;;;;;;9.95;4.72;;;;;;;;;;10367132;23;20032;-93
2024/01/03 18:19:14;;;;;;;10.88;5.05;;;;;;;;;;10360769;23;20020;-94
2024/01/03 18:23:20;;;;;;;7.28;3.78;;;;;;;;;;10319702;23;20020;-93
2024/01/03 18:27:25;;;;;;;27.15;8.45;;;;;;;;;;10347185;23;20051;-92
2024/01/03 18:31:28;;;;;;;11.00;3.88;;;;;;;;;;10341106;23;20103;-94
2024/01/03 18:35:31;;;;;;;13.95;5.75;;;;;;;;;;10339906;23;20042;-91
2024/01/03 18:39:36;;;;;;;31.75;12.05;;;;;;;;;;10312978;23;20397;-93
2024/01/03 18:43:41;;;;;;;19.25;6.13;;;;;;;;;;10339640;23;20015;-92
2024/01/03 18:47:47;;;;;;;19.52;7.22;;;;;;;;;;10343665;23;20026;-93
2024/01/03 18:51:55;;;;;;;23.77;8.65;;;;;;;;;;10346351;23;20051;-93
2024/01/03 18:56:01;;;;;;;12.32;5.68;;;;;;;;;;10316182;23;20146;-93
2024/01/03 19:00:08;;;;;;;19.95;9.25;;;;;;;;;;10341011;23;20083;-92
2024/01/03 19:04:16;;;;;;;19.08;7.25;;;;;;;;;;10339728;23;20035;-93
2024/01/03 19:08:19;;;;;;;22.95;9.82;;;;;;;;;;10311766;23;20020;-90
2024/01/03 19:12:23;;;;;;;17.05;7.35;;;;;;;;;;10339771;23;20078;-93
2024/01/03 19:16:29;;;;;;;13.60;5.95;;;;;;;;;;10339330;23;20023;-91
2024/01/03 19:20:32;;;;;;;8.68;4.80;;;;;;;;;;10312056;23;20012;-93
2024/01/03 19:24:36;;;;;;;8.70;4.32;;;;;;;;;;10339024;23;20341;-93
2024/01/03 19:28:39;;;;;;;12.40;6.45;;;;;;;;;;10338854;23;20445;-91
2024/01/03 19:32:43;;;;;;;11.30;5.60;;;;;;;;;;10310655;23;20395;-92
2024/01/03 19:36:48;;;;;;;11.15;5.95;;;;;;;;;;10339452;23;20093;-91
2024/01/03 19:40:53;;;;;;;7.03;4.07;;;;;;;;;;10338500;23;20448;-93
2024/01/03 19:44:57;;;;;;;10.25;4.40;;;;;;;;;;10356653;23;20016;-93
2024/01/03 19:49:02;;;;;;;8.60;3.85;;;;;;;;;;10338861;23;20023;-92
2024/01/03 19:53:08;;;;;;;9.65;4.78;;;;;;;;;;10311285;23;20028;-93
2024/01/03 19:57:11;;;;;;;9.98;3.78;;;;;;;;;;10312004;23;20375;-91
2024/01/03 20:01:15;;;;;;;9.40;4.10;;;;;;;;;;10338725;23;20023;-94
2024/01/03 20:05:20;;;;;;;6.88;3.63;;;;;;;;;;10339750;23;20087;-92
2024/01/03 20:09:23;;;;;;;10.13;4.38;;;;;;;;;;10342349;23;20448;-92
2024/01/03 20:13:26;;;;;;;9.45;4.13;;;;;;;;;;10341067;23;20022;-92
2024/01/03 20:17:30;;;;;;;10.27;4.40;;;;;;;;;;10341497;23;20356;-92
2024/01/03 20:21:35;;;;;;;8.35;4.60;;;;;;;;;;10340462;23;20012;-93
2024/01/03 20:25:38;;;;;;;7.00;3.88;;;;;;;;;;10340674;23;20023;-92
2024/01/03 20:29:42;;;;;;;10.73;4.18;;;;;;;;;;10341855;23;20041;-93
2024/01/03 20:33:47;;;;;;;15.05;5.45;;;;;;;;;;10343173;23;20043;-93
2024/01/03 20:37:52;;;;;;;10.75;4.90;;;;;;;;;;10358321;23;20031;-92
2024/01/03 20:41:56;;;;;;;13.88;5.10;;;;;;;;;;10342140;23;20016;-92
2024/01/03 20:45:59;;;;;;;11.30;4.65;;;;;;;;;;10342073;23;20103;-94
2024/01/03 20:50:03;;;;;;;11.02;4.95;;;;;;;;;;10342814;23;20024;-93
2024/01/03 20:54:07;;;;;;;10.60;4.90;;;;;;;;;;10342501;23;20027;-92
2024/01/03 20:58:13;;;;;;;11.27;4.65;;;;;;;;;;10314425;23;20022;-91
2024/01/03 21:02:17;;;;;;;10.07;4.28;;;;;;;;;;10341593;23;20016;-92
2024/01/03 21:06:20;;;;;;;8.52;4.28;;;;;;;;;;10342019;23;20020;-92
2024/01/03 21:10:24;;;;;;;12.25;4.95;;;;;;;;;;10314693;23;20026;-92
2024/01/03 21:14:29;;;;;;;10.18;5.05;;;;;;;;;;10341146;23;20440;-91
2024/01/03 21:18:34;;;;;;;8.05;4.05;;;;;;;;;;10340074;23;20016;-91
2024/01/03 21:22:37;;;;;;;10.82;4.68;;;;;;;;;;10357133;23;20026;-91
2024/01/03 21:26:42;;;;;;;8.23;4.28;;;;;;;;;;10340741;23;20023;-91
2024/01/03 21:30:45;;;;;;;10.55;4.82;;;;;;;;;;10339936;23;20111;-91
2024/01/03 21:34:48;;;;;;;9.38;4.30;;;;;;;;;;10339004;23;20111;-91
2024/01/03 21:38:51;;;;;;;10.45;4.50;;;;;;;;;;10312399;23;20453;-92
2024/01/03 21:42:55;;;;;;;9.85;4.40;;;;;;;;;;10338909;23;20330;-92
2024/01/03 21:46:58;;;;;;;7.72;4.75;;;;;;;;;;10339003;23;20396;-93
2024/01/03 21:51:02;;;;;;;10.50;4.43;;;;;;;;;;10338783;23;20070;-92
2024/01/03 21:55:06;;;;;;;9.02;4.13;;;;;;;;;;10339233;23;20383;-91
2024/01/03 21:59:10;;;;;;;7.97;4.40;;;;;;;;;;10338532;23;20016;-93
2024/01/03 22:03:13;;;;;;;9.88;4.90;;;;;;;;;;10338945;23;20024;-90
2024/01/03 22:07:16;;;;;;;13.38;5.03;;;;;;;;;;10337918;23;20138;-91
2024/01/03 22:11:19;;;;;;;8.80;4.07;;;;;;;;;;10338186;23;20353;-89
2024/01/03 22:15:30;;;;;;;11.23;5.60;;;;;;;;;;10311767;23;20023;-90
2024/01/03 22:19:33;;;;;;;14.30;5.95;;;;;;;;;;10355000;23;20440;-91
2024/01/03 22:23:36;;;;;;;13.75;5.38;;;;;;;;;;10338165;23;20091;-91
2024/01/03 22:27:42;;;;;;;12.50;4.65;;;;;;;;;;10338479;23;20069;-92
2024/01/03 22:31:47;;;;;;;11.75;5.13;;;;;;;;;;10355267;23;20095;-92
2024/01/03 22:35:50;;;;;;;13.15;5.38;;;;;;;;;;10338707;23;20020;-89
2024/01/03 22:39:53;;;;;;;10.10;5.22;;;;;;;;;;10338033;23;20028;-91
2024/01/03 22:43:56;;;;;;;12.00;5.68;;;;;;;;;;10339246;23;20031;-92
2024/01/03 22:48:01;;;;;;;13.32;6.38;;;;;;;;;;10337616;23;20016;-91
2024/01/03 22:52:04;;;;;;;11.55;5.38;;;;;;;;;;10337186;23;20016;-91
2024/01/03 22:56:07;;;;;;;10.45;4.40;;;;;;;;;;10310388;23;20099;-91
2024/01/03 23:00:13;;;;;;;11.90;3.95;;;;;;;;;;10337066;23;20020;-91
2024/01/03 23:04:19;;;;;;;6.60;3.67;;;;;;;;;;10338309;23;20027;-90
2024/01/03 23:08:22;;;;;;;8.73;4.32;;;;;;;;;;10354625;23;20027;-90
2024/01/03 23:12:25;;;;;;;13.52;4.35;;;;;;;;;;10337116;23;20084;-90
2024/01/03 23:16:28;;;;;;;11.80;4.78;;;;;;;;;;10337147;23;20016;-91
2024/01/03 23:20:32;;;;;;;10.13;4.45;;;;;;;;;;10337240;23;20097;-90
2024/01/03 23:24:35;;;;;;;10.50;4.75;;;;;;;;;;10337016;23;20020;-90
2024/01/03 23:28:38;;;;;;;8.77;4.85;;;;;;;;;;10337461;23;20020;-90
2024/01/03 23:32:41;;;;;;;13.85;5.10;;;;;;;;;;10336922;23;20101;-91
2024/01/03 23:36:45;;;;;;;10.43;5.10;;;;;;;;;;10337070;23;20091;-90
2024/01/03 23:40:49;;;;;;;9.00;4.68;;;;;;;;;;10311203;23;20042;-90
2024/01/03 23:44:52;;;;;;;10.50;5.25;;;;;;;;;;10340313;23;20103;-91
2024/01/03 23:48:55;;;;;;;9.07;5.00;;;;;;;;;;10340427;23;20444;-91